createdAt,value
2022-12-14T00:01:41.075Z,95395.19
2022-12-14T00:04:08.644Z,95398.41
2022-12-14T00:06:36.246Z,95405.00
2022-12-14T00:09:05.650Z,95399.22
2022-12-14T00:11:33.735Z,95398.31
2022-12-14T00:14:04.967Z,95402.34
2022-12-14T00:16:34.498Z,95397.09
2022-12-14T00:19:03.076Z,95397.66
2022-12-14T00:21:30.907Z,95401.00
2022-12-14T00:23:59.724Z,95393.63
2022-12-14T00:26:29.193Z,95392.56
2022-12-14T00:28:57.088Z,95386.38
2022-12-14T00:31:26.762Z,95387.75
2022-12-14T00:33:55.376Z,95384.00
2022-12-14T00:36:24.301Z,95380.28
2022-12-14T00:38:52.021Z,95373.31
2022-12-14T00:41:20.357Z,95356.38
2022-12-14T00:43:49.185Z,95345.47
2022-12-14T00:46:17.326Z,95368.19
2022-12-14T00:48:46.462Z,95368.75
2022-12-14T00:51:14.788Z,95376.53
2022-12-14T00:53:42.912Z,95373.03
2022-12-14T00:56:11.500Z,95367.94
2022-12-14T00:58:39.053Z,95356.13
2022-12-14T01:01:08.861Z,95355.19
2022-12-14T01:03:36.661Z,95351.69
2022-12-14T01:06:05.756Z,95348.19
2022-12-14T01:08:36.365Z,95341.50
2022-12-14T01:11:06.285Z,95338.25
2022-12-14T01:13:34.083Z,95335.72
2022-12-14T01:16:06.935Z,95335.94
2022-12-14T01:18:35.899Z,95338.50
2022-12-14T01:21:16.722Z,95348.19
2022-12-14T01:23:45.209Z,95341.59
2022-12-14T01:26:13.274Z,95358.63
2022-12-14T01:28:41.068Z,95349.50
2022-12-14T01:31:09.914Z,95362.25
2022-12-14T01:33:37.761Z,95360.63
2022-12-14T01:36:07.225Z,95361.03
2022-12-14T01:38:36.477Z,95356.47
2022-12-14T01:41:05.147Z,95331.63
2022-12-14T01:43:50.107Z,95326.66
2022-12-14T01:46:21.405Z,95349.50
2022-12-14T01:48:51.442Z,95344.94
2022-12-14T01:51:19.259Z,95347.22
2022-12-14T01:53:48.505Z,95345.34
2022-12-14T01:56:17.856Z,95351.13
2022-12-14T01:58:45.427Z,95346.59
2022-12-14T02:01:13.119Z,95337.31
2022-12-14T02:03:46.024Z,95334.09
2022-12-14T02:06:18.603Z,95321.88
2022-12-14T02:08:51.691Z,95317.69
2022-12-14T02:11:29.074Z,95315.81
2022-12-14T02:13:56.569Z,95315.31
2022-12-14T02:16:24.439Z,95293.69
2022-12-14T02:18:52.023Z,95307.66
2022-12-14T02:21:24.994Z,95311.00
2022-12-14T02:24:39.033Z,95308.63
2022-12-14T02:27:16.272Z,95301.06
2022-12-14T02:29:53.968Z,95290.88
2022-12-14T02:32:43.207Z,95266.69
2022-12-14T02:35:18.639Z,95267.06
2022-12-14T02:37:53.630Z,95266.16
2022-12-14T02:40:29.375Z,95270.19
2022-12-14T02:43:07.844Z,95286.16
2022-12-14T02:45:43.287Z,95282.53
2022-12-14T02:48:17.224Z,95275.56
2022-12-14T02:50:54.752Z,95266.84
2022-12-14T02:53:28.757Z,95281.75
2022-12-14T02:56:02.039Z,95276.63
2022-12-14T02:58:34.480Z,95267.50
2022-12-14T03:01:04.876Z,95276.25
2022-12-14T03:03:32.554Z,95273.13
2022-12-14T03:06:01.964Z,95273.00
2022-12-14T03:08:34.207Z,95271.41
2022-12-14T03:11:04.967Z,95263.06
2022-12-14T03:13:37.626Z,95272.59
2022-12-14T03:16:13.849Z,95269.91
2022-12-14T03:18:47.513Z,95265.88
2022-12-14T03:21:19.869Z,95259.97
2022-12-14T03:23:50.723Z,95260.78
2022-12-14T03:26:23.345Z,95272.59
2022-12-14T03:28:54.240Z,95258.38
2022-12-14T03:31:27.483Z,95253.41
2022-12-14T03:33:57.965Z,95262.91
2022-12-14T03:36:29.853Z,95265.47
2022-12-14T03:39:01.378Z,95268.94
2022-12-14T03:41:34.299Z,95266.38
2022-12-14T03:44:14.325Z,95266.81
2022-12-14T03:46:52.774Z,95260.53
2022-12-14T03:49:25.232Z,95259.97
2022-12-14T03:52:01.926Z,95267.91
2022-12-14T03:54:39.430Z,95270.56
2022-12-14T03:57:15.922Z,95272.44
2022-12-14T03:59:53.754Z,95249.75
2022-12-14T04:02:27.832Z,95243.31
2022-12-14T04:05:04.068Z,95237.94
2022-12-14T04:07:38.351Z,95238.72
2022-12-14T04:10:32.789Z,95229.19
2022-12-14T04:13:24.063Z,95220.75
2022-12-14T04:16:18.069Z,95210.81
2022-12-14T04:19:00.963Z,95202.63
2022-12-14T04:21:37.994Z,95197.81
2022-12-14T04:24:31.056Z,95187.19
2022-12-14T04:27:03.231Z,95173.34
2022-12-14T04:29:52.811Z,95179.13
2022-12-14T04:32:26.158Z,95161.41
2022-12-14T04:35:02.565Z,95163.03
2022-12-14T04:37:31.569Z,95159.38
2022-12-14T04:40:05.380Z,95154.16
2022-12-14T04:42:36.735Z,95153.06
2022-12-14T04:45:09.267Z,95145.28
2022-12-14T04:47:42.023Z,95147.69
2022-12-14T04:50:13.945Z,95141.66
2022-12-14T04:52:46.760Z,95134.25
2022-12-14T04:55:18.459Z,95122.84
2022-12-14T04:57:51.733Z,95124.06
2022-12-14T05:00:19.503Z,95112.53
2022-12-14T05:03:05.555Z,95124.59
2022-12-14T05:05:39.664Z,95120.31
2022-12-14T05:08:12.454Z,95136.69
2022-12-14T05:10:42.067Z,95134.00
2022-12-14T05:13:15.534Z,95134.28
2022-12-14T05:15:46.425Z,95146.38
2022-12-14T05:18:14.814Z,95140.59
2022-12-14T05:20:43.787Z,95147.44
2022-12-14T05:23:11.341Z,95156.31
2022-12-14T05:25:38.866Z,95156.31
2022-12-14T05:28:08.434Z,95148.78
2022-12-14T05:30:37.012Z,95142.06
2022-12-14T05:33:05.405Z,95140.47
2022-12-14T05:35:33.197Z,95138.84
2022-12-14T05:38:02.195Z,95136.56
2022-12-14T05:40:29.810Z,95129.59
2022-12-14T05:43:05.764Z,95128.63
2022-12-14T05:45:33.304Z,95141.13
2022-12-14T05:48:01.052Z,95128.09
2022-12-14T05:50:29.027Z,95127.59
2022-12-14T05:52:56.826Z,95121.66
2022-12-14T05:55:25.840Z,95130.81
2022-12-14T05:57:53.380Z,95129.44
2022-12-14T06:00:21.742Z,95119.00
2022-12-14T06:02:49.409Z,95120.31
2022-12-14T06:05:17.333Z,95106.34
2022-12-14T06:07:45.012Z,95096.94
2022-12-14T06:10:12.550Z,95098.56
2022-12-14T06:12:41.541Z,95100.31
2022-12-14T06:15:09.739Z,95085.66
2022-12-14T06:17:37.504Z,95088.06
2022-12-14T06:20:06.369Z,95085.66
2022-12-14T06:22:34.302Z,95078.25
2022-12-14T06:25:04.424Z,95082.84
2022-12-14T06:27:35.011Z,95077.88
2022-12-14T06:30:04.036Z,95075.44
2022-12-14T06:32:31.719Z,95060.31
2022-12-14T06:34:59.316Z,95060.56
2022-12-14T06:37:26.894Z,95053.19
2022-12-14T06:39:54.954Z,95050.75
2022-12-14T06:42:26.256Z,95045.00
2022-12-14T06:44:54.107Z,95048.63
2022-12-14T06:47:23.448Z,95043.66
2022-12-14T06:49:51.528Z,95044.59
2022-12-14T06:52:24.968Z,95047.00
2022-12-14T06:54:54.440Z,95051.19
2022-12-14T06:57:21.981Z,95045.13
2022-12-14T06:59:49.667Z,95051.84
2022-12-14T07:02:21.179Z,95042.72
2022-12-14T07:04:50.557Z,95047.28
2022-12-14T07:07:18.747Z,95042.72
2022-12-14T07:09:48.459Z,95034.41
2022-12-14T07:12:16.410Z,95033.59
2022-12-14T07:14:43.951Z,95033.47
2022-12-14T07:17:11.454Z,95030.94
2022-12-14T07:19:38.987Z,95042.72
2022-12-14T07:22:07.983Z,95039.09
2022-12-14T07:24:35.599Z,95039.50
2022-12-14T07:27:03.307Z,95026.59
2022-12-14T07:29:34.859Z,95029.97
2022-12-14T07:32:02.754Z,95023.91
2022-12-14T07:34:30.343Z,95022.97
2022-12-14T07:36:57.851Z,95017.22
2022-12-14T07:39:27.722Z,95014.13
2022-12-14T07:41:56.188Z,95005.81
2022-12-14T07:44:23.719Z,95010.22
2022-12-14T07:46:51.354Z,95021.22
2022-12-14T07:49:18.978Z,95024.88
2022-12-14T07:51:46.711Z,95026.63
2022-12-14T07:54:15.447Z,95020.44
2022-12-14T07:56:44.641Z,95009.97
2022-12-14T07:59:15.914Z,95014.78
2022-12-14T08:01:44.279Z,94999.34
2022-12-14T08:04:13.948Z,94986.44
2022-12-14T08:06:42.182Z,94986.44
2022-12-14T08:09:12.652Z,94981.50
2022-12-14T08:11:40.716Z,94979.06
2022-12-14T08:14:13.516Z,94975.72
2022-12-14T08:16:41.013Z,94980.41
2022-12-14T08:19:08.672Z,94968.88
2022-12-14T08:21:36.211Z,94968.22
2022-12-14T08:24:03.822Z,94976.00
2022-12-14T08:26:35.548Z,94975.19
2022-12-14T08:29:04.596Z,94972.09
2022-12-14T08:31:34.672Z,94966.34
2022-12-14T08:34:02.977Z,94968.09
2022-12-14T08:36:32.726Z,94959.75
2022-12-14T08:39:02.096Z,94959.91
2022-12-14T08:41:30.120Z,94958.56
2022-12-14T08:43:59.036Z,94948.75
2022-12-14T08:46:28.733Z,94936.38
2022-12-14T08:48:58.158Z,94937.72
2022-12-14T08:51:26.622Z,94945.88
2022-12-14T08:53:55.110Z,94954.72
2022-12-14T08:56:25.233Z,94959.28
2022-12-14T08:58:53.590Z,94962.50
2022-12-14T09:01:28.186Z,94970.66
2022-12-14T09:04:05.377Z,94977.91
2022-12-14T09:06:34.901Z,94985.16
2022-12-14T09:09:02.491Z,94974.78
2022-12-14T09:11:30.145Z,94970.34
2022-12-14T09:13:58.101Z,94958.69
2022-12-14T09:16:27.140Z,94946.34
2022-12-14T09:18:55.548Z,94957.50
2022-12-14T09:21:25.006Z,94950.22
2022-12-14T09:23:57.506Z,94942.13
2022-12-14T09:26:27.204Z,94957.03
2022-12-14T09:28:57.421Z,94955.81
2022-12-14T09:31:27.283Z,94956.03
2022-12-14T09:33:56.616Z,94944.47
2022-12-14T09:36:29.124Z,94941.91
2022-12-14T09:38:57.745Z,94951.81
2022-12-14T09:41:36.297Z,94945.50
2022-12-14T09:44:13.132Z,94951.94
2022-12-14T09:46:57.198Z,94943.84
2022-12-14T09:49:29.064Z,94931.41
2022-12-14T09:52:01.205Z,94928.72
2022-12-14T09:54:32.930Z,94929.25
2022-12-14T09:57:05.722Z,94927.34
2022-12-14T09:59:33.988Z,94915.22
2022-12-14T10:02:31.384Z,94914.16
2022-12-14T10:05:24.743Z,94903.63
2022-12-14T10:08:02.823Z,94893.09
2022-12-14T10:10:41.231Z,94885.44
2022-12-14T10:13:20.209Z,94883.53
2022-12-14T10:15:58.001Z,94890.28
2022-12-14T10:19:00.707Z,94876.53
2022-12-14T10:21:42.255Z,94878.81
2022-12-14T10:24:18.493Z,94879.31
2022-12-14T10:26:51.245Z,94876.59
2022-12-14T10:29:22.660Z,94879.25
2022-12-14T10:32:00.094Z,94871.41
2022-12-14T10:34:30.804Z,94878.28
2022-12-14T10:37:10.202Z,94874.78
2022-12-14T10:39:49.604Z,94873.69
2022-12-14T10:42:23.142Z,94873.53
2022-12-14T10:45:39.575Z,94870.81
2022-12-14T10:47:53.561Z,94874.03
2022-12-14T10:50:30.337Z,94876.59
2022-12-14T10:52:59.527Z,94875.00
2022-12-14T10:55:31.908Z,94877.56
2022-12-14T10:57:59.432Z,94884.78
2022-12-14T11:00:27.168Z,94885.13
2022-12-14T11:02:56.768Z,94882.28
2022-12-14T11:05:36.930Z,94880.38
2022-12-14T11:08:06.648Z,94866.31
2022-12-14T11:10:39.249Z,94866.97
2022-12-14T11:13:16.098Z,94862.69
2022-12-14T11:15:45.559Z,94858.38
2022-12-14T11:18:28.083Z,94845.56
2022-12-14T11:20:57.712Z,94844.59
2022-12-14T11:23:27.628Z,94843.69
2022-12-14T11:26:00.179Z,94836.94
2022-12-14T11:28:37.587Z,94836.94
2022-12-14T11:31:08.525Z,94827.22
2022-12-14T11:33:50.191Z,94820.19
2022-12-14T11:36:25.582Z,94825.81
2022-12-14T11:38:57.441Z,94825.50
2022-12-14T11:41:30.104Z,94825.19
2022-12-14T11:44:06.821Z,94830.03
2022-12-14T11:46:46.668Z,94828.41
2022-12-14T11:49:27.172Z,94827.63
2022-12-14T11:51:56.643Z,94825.19
2022-12-14T11:54:24.185Z,94828.72
2022-12-14T11:56:57.516Z,94832.22
2022-12-14T11:59:29.943Z,94831.56
2022-12-14T12:01:57.771Z,94819.59
2022-12-14T12:04:26.191Z,94822.00
2022-12-14T12:06:55.654Z,94821.84
2022-12-14T12:09:31.149Z,94825.06
2022-12-14T12:12:00.139Z,94817.06
2022-12-14T12:14:34.133Z,94814.38
2022-12-14T12:17:02.352Z,94819.47
2022-12-14T12:19:34.554Z,94826.88
2022-12-14T12:22:03.473Z,94822.38
2022-12-14T12:24:41.682Z,94823.66
2022-12-14T12:27:19.712Z,94819.84
2022-12-14T12:29:51.389Z,94823.06
2022-12-14T12:32:23.375Z,94817.66
2022-12-14T12:35:01.403Z,94815.44
2022-12-14T12:37:38.038Z,94810.16
2022-12-14T12:40:15.987Z,94809.34
2022-12-14T12:42:49.534Z,94805.69
2022-12-14T12:45:21.839Z,94809.06
2022-12-14T12:47:53.266Z,94812.91
2022-12-14T12:50:23.803Z,94816.91
2022-12-14T12:53:03.226Z,94815.00
2022-12-14T12:55:36.628Z,94818.03
2022-12-14T12:58:09.785Z,94814.84
2022-12-14T13:00:39.785Z,94814.38
2022-12-14T13:03:11.579Z,94814.25
2022-12-14T13:05:47.076Z,94815.88
2022-12-14T13:08:23.695Z,94810.41
2022-12-14T13:11:25.520Z,94808.50
2022-12-14T13:13:46.453Z,94818.44
2022-12-14T13:16:26.265Z,94823.25
2022-12-14T13:19:19.085Z,94827.09
2022-12-14T13:21:51.888Z,94824.22
2022-12-14T13:24:21.941Z,94837.34
2022-12-14T13:27:12.266Z,94839.44
2022-12-14T13:30:00.450Z,94837.22
2022-12-14T13:32:43.594Z,94842.81
2022-12-14T13:35:30.128Z,94838.69
2022-12-14T13:38:18.904Z,94846.69
2022-12-14T13:41:19.538Z,94852.78
2022-12-14T13:44:05.499Z,94848.94
2022-12-14T13:46:34.817Z,94858.91
2022-12-14T13:49:08.182Z,94867.22
2022-12-14T13:51:39.056Z,94861.78
2022-12-14T13:54:17.132Z,94870.09
2022-12-14T13:56:45.213Z,94864.66
2022-12-14T13:59:29.032Z,94866.09
2022-12-14T14:01:59.896Z,94881.16
2022-12-14T14:04:29.395Z,94872.34
2022-12-14T14:06:58.015Z,94860.19
2022-12-14T14:10:01.045Z,94870.09
2022-12-14T14:12:40.591Z,94864.03
2022-12-14T14:15:26.574Z,94856.00
2022-12-14T14:18:02.631Z,94844.47
2022-12-14T14:20:38.239Z,94841.75
2022-12-14T14:23:29.809Z,94831.34
2022-12-14T14:26:17.423Z,94833.56
2022-12-14T14:28:49.468Z,94846.41
2022-12-14T14:31:17.388Z,94848.00
2022-12-14T14:33:50.163Z,94850.41
2022-12-14T14:36:23.450Z,94859.88
2022-12-14T14:38:51.908Z,94863.72
2022-12-14T14:41:24.432Z,94869.47
2022-12-14T14:43:54.653Z,94876.19
2022-12-14T14:46:34.632Z,94879.41
2022-12-14T14:49:04.429Z,94882.63
2022-12-14T14:51:36.359Z,94881.03
2022-12-14T14:57:34.235Z,94898.31
2022-12-14T15:00:03.755Z,94892.53
2022-12-14T15:02:34.311Z,94904.44
2022-12-14T15:05:33.112Z,94906.66
2022-12-14T15:07:55.828Z,94914.84
2022-12-14T15:10:29.573Z,94927.34
2022-12-14T15:13:02.521Z,94931.19
2022-12-14T15:15:36.626Z,94926.53
2022-12-14T15:18:23.795Z,94940.81
2022-12-14T15:20:58.948Z,94949.94
2022-12-14T15:23:31.743Z,94958.28
2022-12-14T15:26:02.646Z,94971.91
2022-12-14T15:28:32.205Z,94966.78
2022-12-14T15:31:00.289Z,94966.63
2022-12-14T15:33:32.238Z,94975.13
2022-12-14T15:36:05.619Z,94980.09
2022-12-14T15:38:34.929Z,94986.84
2022-12-14T15:41:04.876Z,94995.34
2022-12-14T15:43:33.891Z,94998.88
2022-12-14T15:46:03.647Z,95007.38
2022-12-14T15:48:34.268Z,95021.19
2022-12-14T15:51:06.139Z,95028.06
2022-12-14T15:53:36.444Z,95024.72
2022-12-14T15:56:17.542Z,95027.09
2022-12-14T15:58:45.835Z,95025.34
2022-12-14T16:01:18.895Z,95031.28
2022-12-14T16:03:49.878Z,95032.09
2022-12-14T16:06:19.765Z,95039.00
2022-12-14T16:08:53.120Z,95039.00
2022-12-14T16:11:26.564Z,95039.00
2022-12-14T16:13:57.897Z,95043.28
2022-12-14T16:16:25.773Z,95041.69
2022-12-14T16:18:54.281Z,95046.84
2022-12-14T16:21:32.176Z,95050.38
2022-12-14T16:24:01.055Z,95051.31
2022-12-14T16:26:36.179Z,95066.72
2022-12-14T16:29:09.799Z,95057.44
2022-12-14T16:31:38.434Z,95066.06
2022-12-14T16:34:14.972Z,95066.72
2022-12-14T16:36:56.276Z,95069.28
2022-12-14T16:39:37.839Z,95069.94
2022-12-14T16:42:07.056Z,95075.06
2022-12-14T16:44:40.712Z,95082.78
2022-12-14T16:47:28.535Z,95086.13
2022-12-14T16:49:59.542Z,95089.50
2022-12-14T16:52:31.386Z,95093.84
2022-12-14T16:55:14.131Z,95089.81
2022-12-14T16:57:52.458Z,95090.63
2022-12-14T17:00:23.389Z,95096.56
2022-12-14T17:02:57.527Z,95097.53
2022-12-14T17:05:30.143Z,95089.19
2022-12-14T17:07:59.064Z,95097.53
2022-12-14T17:10:27.100Z,95101.06
2022-12-14T17:12:57.598Z,95100.09
2022-12-14T17:15:26.730Z,95106.84
2022-12-14T17:17:56.041Z,95110.84
2022-12-14T17:20:26.202Z,95112.44
2022-12-14T17:22:55.063Z,95119.19
2022-12-14T17:25:23.946Z,95121.59
2022-12-14T17:27:51.673Z,95123.22
2022-12-14T17:30:21.643Z,95123.22
2022-12-14T17:32:51.437Z,95123.22
2022-12-14T17:35:21.360Z,95123.22
2022-12-14T17:37:49.536Z,95122.56
2022-12-14T17:40:17.887Z,95124.16
2022-12-14T17:42:52.023Z,95131.84
2022-12-14T17:45:22.754Z,95127.03
2022-12-14T17:47:50.510Z,95132.19
2022-12-14T17:50:19.448Z,95128.81
2022-12-14T17:52:48.058Z,95138.91
2022-12-14T17:55:18.621Z,95141.31
2022-12-14T17:57:47.914Z,95141.31
2022-12-14T18:00:38.614Z,95142.13
2022-12-14T18:03:07.037Z,95143.75
2022-12-14T18:05:34.994Z,95153.22
2022-12-14T18:08:02.523Z,95151.59
2022-12-14T18:10:30.138Z,95151.44
2022-12-14T18:12:59.211Z,95159.94
2022-12-14T18:15:28.905Z,95166.84
2022-12-14T18:17:57.043Z,95166.19
2022-12-14T18:20:25.072Z,95165.56
2022-12-14T18:22:53.290Z,95161.34
2022-12-14T18:25:31.565Z,95159.44
2022-12-14T18:28:01.213Z,95165.56
2022-12-14T18:30:35.048Z,95174.84
2022-12-14T18:33:06.547Z,95171.34
2022-12-14T18:35:34.831Z,95174.84
2022-12-14T18:38:02.391Z,95179.81
2022-12-14T18:40:30.758Z,95181.59
2022-12-14T18:42:59.754Z,95183.50
2022-12-14T18:45:29.833Z,95186.22
2022-12-14T18:47:59.074Z,95192.16
2022-12-14T18:50:26.640Z,95187.03
2022-12-14T18:52:55.522Z,95194.56
2022-12-14T18:55:25.054Z,95202.13
2022-12-14T18:57:55.422Z,95208.06
2022-12-14T19:00:26.495Z,95212.06
2022-12-14T19:02:58.280Z,95216.56
2022-12-14T19:05:26.622Z,95207.91
2022-12-14T19:07:54.183Z,95207.25
2022-12-14T19:10:24.111Z,95206.47
2022-12-14T19:12:51.864Z,95207.41
2022-12-14T19:15:21.771Z,95218.78
2022-12-14T19:17:53.165Z,95218.94
2022-12-14T19:20:24.479Z,95213.81
2022-12-14T19:22:52.609Z,95211.09
2022-12-14T19:25:21.670Z,95222.16
2022-12-14T19:30:37.405Z,95223.28
2022-12-14T19:33:06.396Z,95239.78
2022-12-14T19:35:33.966Z,95231.59
2022-12-14T19:38:01.610Z,95230.94
2022-12-14T19:40:29.241Z,95245.53
2022-12-14T19:42:56.980Z,95233.03
2022-12-14T19:45:24.551Z,95228.03
2022-12-14T19:47:52.151Z,95219.38
2022-12-14T19:50:21.370Z,95238.97
2022-12-14T19:52:49.069Z,95227.91
2022-12-14T19:55:18.240Z,95239.91
2022-12-14T19:57:45.898Z,95243.13
2022-12-14T20:00:14.391Z,95243.28
2022-12-14T20:02:42.203Z,95243.44
2022-12-14T20:05:10.304Z,95260.44
2022-12-14T20:07:43.855Z,95257.84
2022-12-14T20:10:25.917Z,95261.25
2022-12-14T20:12:56.362Z,95255.28
2022-12-14T20:15:24.052Z,95252.91
2022-12-14T20:17:52.922Z,95255.47
2022-12-14T20:20:23.830Z,95259.94
2022-12-14T20:22:55.743Z,95262.66
2022-12-14T20:25:26.361Z,95271.31
2022-12-14T20:27:53.950Z,95276.44
2022-12-14T20:30:21.577Z,95273.22
2022-12-14T20:32:49.539Z,95280.94
2022-12-14T20:35:18.661Z,95292.13
2022-12-14T20:37:46.449Z,95289.75
2022-12-14T20:40:15.672Z,95288.91
2022-12-14T20:42:43.229Z,95295.81
2022-12-14T20:45:11.175Z,95291.66
2022-12-14T20:47:38.697Z,95284.69
2022-12-14T20:50:06.843Z,95283.97
2022-12-14T20:52:34.391Z,95288.09
2022-12-14T20:55:01.941Z,95288.69
2022-12-14T20:57:33.006Z,95283.53
2022-12-14T21:00:00.736Z,95288.94
2022-12-14T21:02:28.793Z,95291.81
2022-12-14T21:04:56.485Z,95302.34
2022-12-14T21:07:26.239Z,95303.19
2022-12-14T21:09:54.343Z,95305.94
2022-12-14T21:12:20.963Z,95305.13
2022-12-14T21:14:53.060Z,95311.22
2022-12-14T21:17:22.982Z,95315.69
2022-12-14T21:19:51.365Z,95310.22
2022-12-14T21:22:21.405Z,95316.28
2022-12-14T21:25:06.074Z,95322.19
2022-12-14T21:27:37.999Z,95318.03
2022-12-14T21:30:09.068Z,95320.91
2022-12-14T21:32:37.543Z,95314.00
2022-12-14T21:35:06.361Z,95320.06
2022-12-14T21:37:33.985Z,95320.59
2022-12-14T21:40:03.646Z,95324.47
2022-12-14T21:42:30.369Z,95314.72
2022-12-14T21:44:57.895Z,95327.13
2022-12-14T21:47:29.531Z,95319.78
2022-12-14T21:49:57.373Z,95319.47
2022-12-14T21:52:27.698Z,95319.19
2022-12-14T21:54:55.825Z,95306.72
2022-12-14T21:57:42.907Z,95309.28
2022-12-14T22:00:17.900Z,95313.47
2022-12-14T22:02:46.954Z,95317.28
2022-12-14T22:05:14.565Z,95317.22
2022-12-14T22:07:42.163Z,95323.25
2022-12-14T22:10:09.769Z,95319.63
2022-12-14T22:12:37.332Z,95319.59
2022-12-14T22:15:05.372Z,95320.81
2022-12-14T22:17:32.958Z,95332.69
2022-12-14T22:20:01.853Z,95334.78
2022-12-14T22:22:29.403Z,95332.09
2022-12-14T22:24:57.039Z,95337.88
2022-12-14T22:27:24.544Z,95342.03
2022-12-14T22:29:52.134Z,95337.44
2022-12-14T22:32:19.789Z,95342.28
2022-12-14T22:34:47.405Z,95339.28
2022-12-14T22:37:16.604Z,95352.16
2022-12-14T22:39:44.256Z,95344.00
2022-12-14T22:42:15.395Z,95346.44
2022-12-14T22:44:42.929Z,95347.09
2022-12-14T22:47:10.483Z,95345.31
2022-12-14T22:49:38.015Z,95342.09
2022-12-14T22:52:05.570Z,95343.66
2022-12-14T22:54:34.573Z,95345.56
2022-12-14T22:57:06.133Z,95350.81
2022-12-14T22:59:37.855Z,95353.84
2022-12-14T23:02:05.960Z,95354.28
2022-12-14T23:04:33.879Z,95347.03
2022-12-14T23:07:01.481Z,95345.56
2022-12-14T23:09:46.748Z,95348.44
2022-12-14T23:12:33.101Z,95348.81
2022-12-14T23:15:18.417Z,95345.78
2022-12-14T23:18:03.676Z,95342.78
2022-12-14T23:20:48.844Z,95341.53
2022-12-14T23:23:34.702Z,95351.50
2022-12-14T23:26:21.024Z,95358.91
2022-12-14T23:29:07.532Z,95372.22
2022-12-14T23:31:53.101Z,95360.06
2022-12-14T23:34:38.232Z,95358.31
2022-12-14T23:37:23.642Z,95361.81
2022-12-14T23:40:09.050Z,95366.66
2022-12-14T23:42:54.343Z,95372.59
2022-12-14T23:45:41.029Z,95373.09
2022-12-14T23:48:26.327Z,95371.50
2022-12-14T23:51:11.580Z,95367.31
2022-12-14T23:53:56.915Z,95372.72
2022-12-14T23:56:42.016Z,95363.44
2022-12-14T23:59:31.865Z,95370.16
